createdAt,value
2018-11-07T00:01:18.781Z,37.97
2018-11-07T00:03:56.290Z,39.08
2018-11-07T00:06:33.882Z,38.80
2018-11-07T00:09:14.112Z,39.73
2018-11-07T00:11:52.689Z,38.80
2018-11-07T00:14:33.637Z,37.95
2018-11-07T00:17:11.283Z,38.67
2018-11-07T00:19:49.054Z,36.67
2018-11-07T00:22:21.907Z,34.73
2018-11-07T00:24:56.454Z,38.60
2018-11-07T00:27:31.035Z,39.23
2018-11-07T00:30:04.507Z,37.03
2018-11-07T00:32:39.237Z,38.80
2018-11-07T00:35:15.484Z,37.93
2018-11-07T00:37:51.655Z,36.83
2018-11-07T00:40:28.070Z,37.48
2018-11-07T00:43:06.374Z,35.87
2018-11-07T00:45:42.494Z,36.87
2018-11-07T00:48:20.749Z,37.53
2018-11-07T00:50:58.377Z,46.13
2018-11-07T00:53:35.412Z,36.03
2018-11-07T00:56:12.405Z,35.30
2018-11-07T00:58:50.146Z,38.13
2018-11-07T01:01:26.816Z,36.93
2018-11-07T01:04:04.702Z,33.90
2018-11-07T01:06:41.358Z,37.97
2018-11-07T01:09:19.113Z,35.92
2018-11-07T01:11:58.139Z,36.37
2018-11-07T01:14:34.832Z,34.93
2018-11-07T01:17:12.640Z,34.17
2018-11-07T01:19:49.198Z,35.40
2018-11-07T01:22:28.929Z,36.10
2018-11-07T01:25:06.177Z,35.80
2018-11-07T01:27:35.790Z,34.57
2018-11-07T01:30:09.494Z,34.53
2018-11-07T01:32:39.075Z,33.77
2018-11-07T01:35:09.761Z,33.65
2018-11-07T01:37:39.209Z,34.00
2018-11-07T01:40:12.087Z,33.40
2018-11-07T01:42:42.323Z,32.30
2018-11-07T01:45:13.616Z,34.20
2018-11-07T01:47:43.284Z,32.50
2018-11-07T01:50:13.726Z,32.50
2018-11-07T01:52:43.211Z,33.13
2018-11-07T01:55:12.664Z,30.48
2018-11-07T01:57:42.145Z,31.93
2018-11-07T02:00:12.726Z,32.27
2018-11-07T02:02:43.447Z,33.83
2018-11-07T02:05:13.552Z,32.30
2018-11-07T02:07:43.440Z,32.07
2018-11-07T02:10:12.909Z,32.45
2018-11-07T02:12:42.612Z,32.00
2018-11-07T02:15:12.143Z,32.03
2018-11-07T02:17:41.580Z,32.00
2018-11-07T02:20:12.197Z,31.63
2018-11-07T02:22:42.283Z,30.33
2018-11-07T02:25:11.732Z,31.03
2018-11-07T02:27:41.719Z,29.57
2018-11-07T02:30:15.149Z,31.33
2018-11-07T02:32:45.027Z,29.93
2018-11-07T02:35:14.487Z,29.67
2018-11-07T02:37:43.882Z,30.17
2018-11-07T02:40:13.314Z,31.20
2018-11-07T02:42:44.328Z,29.80
2018-11-07T02:45:13.730Z,29.92
2018-11-07T02:47:43.130Z,29.33
2018-11-07T02:50:12.778Z,28.62
2018-11-07T02:52:42.449Z,27.83
2018-11-07T02:55:12.107Z,27.37
2018-11-07T02:57:41.550Z,28.70
2018-11-07T03:00:12.857Z,28.92
2018-11-07T03:02:42.278Z,27.90
2018-11-07T03:05:11.707Z,28.60
2018-11-07T03:07:50.082Z,29.17
2018-11-07T03:10:19.562Z,28.97
2018-11-07T03:12:48.934Z,29.70
2018-11-07T03:15:18.391Z,29.63
2018-11-07T03:17:47.874Z,28.57
2018-11-07T03:20:17.513Z,25.50
2018-11-07T03:22:46.890Z,27.17
2018-11-07T03:25:16.231Z,26.73
2018-11-07T03:27:45.631Z,26.63
2018-11-07T03:30:15.072Z,26.12
2018-11-07T03:32:47.543Z,25.35
2018-11-07T03:35:23.300Z,26.50
2018-11-07T03:37:52.698Z,26.30
2018-11-07T03:40:22.103Z,23.83
2018-11-07T03:42:51.482Z,26.63
2018-11-07T03:45:25.802Z,26.05
2018-11-07T03:47:55.316Z,25.50
2018-11-07T03:50:25.031Z,24.80
2018-11-07T03:52:54.683Z,23.43
2018-11-07T03:55:24.053Z,23.40
2018-11-07T03:57:53.737Z,23.27
2018-11-07T04:00:23.341Z,24.60
2018-11-07T04:02:52.799Z,23.60
2018-11-07T04:05:22.460Z,21.27
2018-11-07T04:07:51.857Z,24.20
2018-11-07T04:10:21.283Z,22.00
2018-11-07T04:12:50.939Z,22.40
2018-11-07T04:15:20.298Z,22.87
2018-11-07T04:17:49.635Z,22.33
2018-11-07T04:20:19.108Z,23.90
2018-11-07T04:22:49.076Z,22.83
2018-11-07T04:25:18.514Z,22.03
2018-11-07T04:27:47.954Z,22.30
2018-11-07T04:30:17.437Z,22.87
2018-11-07T04:32:46.869Z,22.13
2018-11-07T04:35:16.258Z,20.68
2018-11-07T04:37:45.668Z,22.67
2018-11-07T04:40:15.142Z,23.47
2018-11-07T04:42:49.330Z,21.57
2018-11-07T04:45:19.062Z,22.48
2018-11-07T04:47:48.677Z,21.60
2018-11-07T04:50:18.083Z,23.33
2018-11-07T04:52:47.563Z,21.57
2018-11-07T04:55:17.063Z,23.50
2018-11-07T04:57:46.506Z,21.37
2018-11-07T05:00:15.996Z,21.33
2018-11-07T05:02:45.383Z,22.00
2018-11-07T05:05:14.760Z,21.83
2018-11-07T05:07:44.344Z,22.47
2018-11-07T05:10:14.761Z,21.05
2018-11-07T05:12:45.088Z,22.02
2018-11-07T05:15:14.815Z,22.05
2018-11-07T05:17:44.570Z,21.07
2018-11-07T05:20:14.023Z,20.63
2018-11-07T05:22:43.748Z,20.50
2018-11-07T05:25:13.402Z,20.77
2018-11-07T05:27:43.695Z,21.70
2018-11-07T05:30:13.556Z,21.53
2018-11-07T05:32:42.995Z,21.83
2018-11-07T05:35:12.464Z,20.47
2018-11-07T05:37:42.676Z,22.70
2018-11-07T05:40:12.135Z,21.40
2018-11-07T05:42:41.695Z,22.30
2018-11-07T05:45:11.106Z,21.57
2018-11-07T05:47:41.027Z,22.33
2018-11-07T05:50:11.354Z,21.37
2018-11-07T05:52:41.134Z,21.00
2018-11-07T05:55:11.017Z,21.02
2018-11-07T05:57:40.760Z,22.00
2018-11-07T06:00:11.779Z,21.33
2018-11-07T06:02:41.610Z,20.80
2018-11-07T06:05:12.109Z,19.87
2018-11-07T06:07:42.830Z,19.23
2018-11-07T06:10:13.537Z,22.00
2018-11-07T06:12:43.226Z,19.60
2018-11-07T06:15:12.843Z,19.33
2018-11-07T06:17:42.286Z,21.33
2018-11-07T06:20:12.140Z,20.97
2018-11-07T06:22:41.540Z,19.63
2018-11-07T06:25:11.675Z,20.32
2018-11-07T06:27:41.776Z,19.50
2018-11-07T06:30:12.696Z,20.75
2018-11-07T06:32:42.444Z,19.53
2018-11-07T06:35:12.182Z,21.25
2018-11-07T06:37:41.836Z,20.43
2018-11-07T06:40:12.238Z,19.87
2018-11-07T06:42:41.706Z,20.27
2018-11-07T06:45:11.791Z,21.45
2018-11-07T06:47:41.203Z,20.20
2018-11-07T06:50:14.330Z,21.30
2018-11-07T06:52:44.461Z,21.30
2018-11-07T06:55:13.915Z,19.87
2018-11-07T06:57:43.298Z,19.93
2018-11-07T07:00:15.734Z,19.90
2018-11-07T07:02:46.233Z,21.03
2018-11-07T07:05:15.816Z,21.07
2018-11-07T07:07:45.482Z,20.10
2018-11-07T07:10:16.316Z,20.77
2018-11-07T07:12:45.812Z,20.20
2018-11-07T07:15:16.138Z,20.48
2018-11-07T07:17:45.731Z,18.90
2018-11-07T07:20:17.332Z,20.10
2018-11-07T07:22:47.522Z,22.13
2018-11-07T07:25:17.090Z,20.20
2018-11-07T07:27:47.439Z,19.47
2018-11-07T07:30:19.227Z,21.42
2018-11-07T07:32:49.064Z,19.17
2018-11-07T07:35:18.575Z,19.37
2018-11-07T07:37:48.262Z,20.20
2018-11-07T07:40:17.980Z,19.93
2018-11-07T07:42:47.732Z,20.27
2018-11-07T07:45:18.275Z,21.48
2018-11-07T07:47:47.890Z,20.93
2018-11-07T07:50:19.161Z,20.35
2018-11-07T07:52:52.379Z,20.03
2018-11-07T07:55:21.785Z,20.97
2018-11-07T07:57:51.281Z,21.83
2018-11-07T08:00:21.660Z,19.73
2018-11-07T08:02:52.516Z,20.17
2018-11-07T08:05:22.053Z,21.53
2018-11-07T08:07:52.382Z,21.53
2018-11-07T08:10:22.714Z,20.50
2018-11-07T08:12:53.322Z,21.20
2018-11-07T08:15:22.786Z,21.77
2018-11-07T08:17:52.290Z,22.00
2018-11-07T08:20:21.704Z,22.20
2018-11-07T08:22:51.134Z,22.70
2018-11-07T08:25:20.571Z,21.73
2018-11-07T08:27:49.981Z,22.83
2018-11-07T08:30:20.842Z,20.92
2018-11-07T08:32:50.559Z,22.87
2018-11-07T08:35:20.016Z,20.63
2018-11-07T08:37:49.719Z,20.63
2018-11-07T08:40:21.719Z,22.57
2018-11-07T08:42:51.283Z,21.13
2018-11-07T08:45:20.710Z,21.37
2018-11-07T08:47:50.455Z,20.25
2018-11-07T08:50:21.070Z,20.68
2018-11-07T08:52:50.784Z,19.70
2018-11-07T08:55:21.525Z,19.97
2018-11-07T08:57:52.175Z,20.75
2018-11-07T09:00:23.906Z,20.80
2018-11-07T09:02:54.303Z,20.17
2018-11-07T09:05:24.081Z,19.87
2018-11-07T09:07:53.525Z,19.50
2018-11-07T09:10:23.900Z,19.20
2018-11-07T09:12:53.284Z,19.23
2018-11-07T09:15:24.234Z,19.48
2018-11-07T09:17:53.701Z,18.03
2018-11-07T09:20:24.111Z,17.73
2018-11-07T09:22:54.143Z,17.60
2018-11-07T09:25:23.602Z,16.82
2018-11-07T09:27:52.983Z,16.23
2018-11-07T09:30:23.634Z,16.50
2018-11-07T09:32:53.097Z,16.10
2018-11-07T09:35:22.880Z,16.17
2018-11-07T09:37:52.398Z,16.00
2018-11-07T09:40:22.284Z,14.83
2018-11-07T09:42:51.803Z,15.20
2018-11-07T09:45:22.382Z,15.00
2018-11-07T09:47:52.526Z,15.10
2018-11-07T09:50:21.939Z,13.95
2018-11-07T09:52:51.380Z,14.43
2018-11-07T09:55:21.644Z,14.33
2018-11-07T09:57:51.024Z,14.10
2018-11-07T10:00:21.820Z,14.35
2018-11-07T10:02:51.560Z,12.90
2018-11-07T10:05:21.720Z,12.28
2018-11-07T10:07:51.272Z,12.90
2018-11-07T10:10:21.967Z,13.03
2018-11-07T10:12:51.593Z,12.03
2018-11-07T10:15:21.492Z,11.40
2018-11-07T10:17:50.911Z,11.97
2018-11-07T10:20:21.853Z,11.63
2018-11-07T10:22:51.509Z,11.38
2018-11-07T10:25:21.765Z,11.18
2018-11-07T10:27:51.917Z,10.63
2018-11-07T10:30:21.693Z,9.98
2018-11-07T10:32:51.523Z,10.43
2018-11-07T10:35:21.080Z,9.50
2018-11-07T10:37:50.661Z,9.67
2018-11-07T10:40:22.604Z,9.10
2018-11-07T10:42:52.044Z,9.80
2018-11-07T10:45:21.791Z,9.13
2018-11-07T10:47:52.678Z,8.23
2018-11-07T10:50:22.545Z,8.13
2018-11-07T10:52:52.257Z,8.30
2018-11-07T10:55:21.662Z,8.48
2018-11-07T10:57:51.645Z,7.83
2018-11-07T11:00:26.351Z,7.63
2018-11-07T11:03:13.906Z,8.03
2018-11-07T11:05:43.343Z,7.03
2018-11-07T11:08:12.916Z,6.72
2018-11-07T11:10:42.362Z,7.30
2018-11-07T11:13:12.112Z,6.97
2018-11-07T11:15:41.616Z,7.67
2018-11-07T11:18:11.180Z,6.20
2018-11-07T11:20:40.788Z,6.20
2018-11-07T11:23:10.186Z,6.30
2018-11-07T11:25:39.680Z,6.50
2018-11-07T11:28:09.507Z,6.10
2018-11-07T11:30:39.304Z,6.23
2018-11-07T11:33:09.258Z,6.97
2018-11-07T11:35:39.286Z,5.93
2018-11-07T11:38:08.776Z,5.17
2018-11-07T11:40:38.302Z,5.40
2018-11-07T11:43:07.833Z,5.20
2018-11-07T11:45:37.680Z,4.80
2018-11-07T11:48:08.195Z,5.00
2018-11-07T11:50:37.692Z,5.13
2018-11-07T11:53:07.375Z,5.00
2018-11-07T11:55:36.879Z,4.57
2018-11-07T11:58:07.205Z,4.12
2018-11-07T12:00:38.316Z,4.03
2018-11-07T12:03:10.506Z,4.07
2018-11-07T12:05:40.054Z,4.33
2018-11-07T12:08:10.083Z,4.00
2018-11-07T12:10:39.691Z,4.17
2018-11-07T12:13:09.180Z,4.03
2018-11-07T12:15:38.585Z,4.20
2018-11-07T12:18:08.073Z,4.30
2018-11-07T12:20:37.671Z,4.50
2018-11-07T12:23:07.104Z,4.17
2018-11-07T12:25:39.187Z,4.60
2018-11-07T12:28:09.535Z,3.80
2018-11-07T12:30:39.017Z,3.80
2018-11-07T12:33:08.627Z,3.93
2018-11-07T12:35:38.038Z,3.93
2018-11-07T12:38:07.466Z,3.50
2018-11-07T12:40:38.926Z,3.40
2018-11-07T12:43:08.843Z,3.93
2018-11-07T12:45:38.505Z,3.33
2018-11-07T12:48:08.503Z,3.27
2018-11-07T12:50:37.918Z,3.10
2018-11-07T12:53:07.334Z,3.40
2018-11-07T12:55:40.757Z,3.17
2018-11-07T12:58:10.331Z,3.13
2018-11-07T13:00:39.610Z,3.47
2018-11-07T13:03:09.068Z,2.90
2018-11-07T13:05:38.977Z,3.03
2018-11-07T13:08:08.498Z,2.95
2018-11-07T13:10:38.477Z,2.90
2018-11-07T13:13:08.175Z,2.90
2018-11-07T13:15:37.775Z,3.10
2018-11-07T13:18:07.597Z,2.90
2018-11-07T13:20:37.139Z,2.80
2018-11-07T13:23:06.833Z,2.20
2018-11-07T13:25:37.175Z,2.50
2018-11-07T13:28:06.800Z,2.30
2018-11-07T13:30:36.887Z,2.65
2018-11-07T13:33:06.735Z,2.90
2018-11-07T13:35:36.184Z,3.07
2018-11-07T13:38:06.742Z,2.87
2018-11-07T13:40:35.937Z,2.80
2018-11-07T13:43:07.521Z,2.80
2018-11-07T13:45:36.991Z,2.77
2018-11-07T13:48:06.631Z,2.60
2018-11-07T13:50:39.817Z,2.60
2018-11-07T13:53:09.455Z,2.77
2018-11-07T13:55:38.825Z,2.73
2018-11-07T13:58:08.276Z,2.50
2018-11-07T14:00:37.863Z,2.60
2018-11-07T14:03:07.495Z,2.63
2018-11-07T14:05:37.103Z,2.60
2018-11-07T14:08:06.642Z,2.60
2018-11-07T14:10:36.098Z,3.07
2018-11-07T14:13:07.838Z,2.75
2018-11-07T14:15:39.100Z,2.43
2018-11-07T14:18:08.640Z,2.67
2018-11-07T14:20:38.112Z,2.73
2018-11-07T14:23:07.640Z,2.80
2018-11-07T14:25:37.056Z,2.47
2018-11-07T14:28:07.725Z,3.10
2018-11-07T14:30:37.015Z,3.00
2018-11-07T14:33:06.654Z,2.75
2018-11-07T14:35:36.260Z,2.60
2018-11-07T14:38:06.318Z,2.70
2018-11-07T14:40:35.888Z,2.60
2018-11-07T14:43:06.768Z,2.58
2018-11-07T14:45:36.258Z,2.80
2018-11-07T14:48:06.051Z,2.70
2018-11-07T14:50:35.559Z,2.70
2018-11-07T14:53:05.055Z,2.77
2018-11-07T14:55:34.531Z,2.73
2018-11-07T14:58:04.040Z,2.50
2018-11-07T15:00:33.433Z,2.50
2018-11-07T15:03:02.870Z,2.43
2018-11-07T15:05:32.455Z,2.23
2018-11-07T15:08:01.855Z,2.40
2018-11-07T15:10:31.405Z,2.53
2018-11-07T15:13:00.996Z,2.70
2018-11-07T15:15:30.498Z,2.80
2018-11-07T15:17:59.902Z,2.30
2018-11-07T15:20:29.329Z,2.33
2018-11-07T15:22:59.072Z,2.70
2018-11-07T15:25:28.651Z,2.27
2018-11-07T15:27:58.287Z,2.40
2018-11-07T15:30:27.860Z,2.05
2018-11-07T15:32:57.340Z,2.40
2018-11-07T15:35:33.506Z,2.20
2018-11-07T15:38:03.352Z,2.17
2018-11-07T15:40:32.831Z,2.57
2018-11-07T15:43:02.306Z,2.40
2018-11-07T15:45:32.094Z,2.07
2018-11-07T15:48:02.458Z,2.37
2018-11-07T15:50:37.000Z,2.90
2018-11-07T15:53:06.769Z,2.50
2018-11-07T15:55:36.266Z,2.63
2018-11-07T15:58:07.616Z,2.33
2018-11-07T16:00:37.402Z,2.30
2018-11-07T16:03:06.880Z,2.77
2018-11-07T16:05:36.398Z,2.33
2018-11-07T16:08:06.801Z,2.67
2018-11-07T16:10:36.304Z,2.97
2018-11-07T16:13:10.124Z,2.43
2018-11-07T16:15:39.613Z,2.70
2018-11-07T16:18:09.250Z,2.57
2018-11-07T16:20:38.818Z,2.70
2018-11-07T16:23:09.407Z,2.80
2018-11-07T16:25:39.016Z,2.70
2018-11-07T16:28:08.683Z,3.03
2018-11-07T16:30:38.350Z,3.20
2018-11-07T16:33:07.904Z,2.80
2018-11-07T16:35:37.301Z,2.90
2018-11-07T16:38:07.232Z,2.90
2018-11-07T16:40:36.900Z,2.80
2018-11-07T16:43:06.727Z,3.35
2018-11-07T16:45:36.108Z,3.00
2018-11-07T16:48:06.520Z,3.10
2018-11-07T16:50:36.199Z,3.33
2018-11-07T16:53:12.950Z,3.23
2018-11-07T16:55:42.560Z,3.07
2018-11-07T16:58:12.078Z,3.00
2018-11-07T17:00:44.942Z,3.17
2018-11-07T17:03:14.447Z,3.00
2018-11-07T17:05:43.959Z,3.00
2018-11-07T17:08:13.609Z,2.83
2018-11-07T17:10:43.143Z,3.07
2018-11-07T17:13:12.563Z,3.10
2018-11-07T17:15:42.119Z,2.70
2018-11-07T17:18:11.600Z,2.47
2018-11-07T17:20:41.077Z,2.63
2018-11-07T17:23:10.492Z,2.43
2018-11-07T17:25:39.986Z,2.50
2018-11-07T17:28:09.449Z,2.60
2018-11-07T17:30:39.090Z,2.50
2018-11-07T17:33:08.522Z,2.67
2018-11-07T17:35:38.502Z,2.73
2018-11-07T17:38:07.975Z,2.57
2018-11-07T17:40:37.716Z,2.50
2018-11-07T17:43:07.796Z,2.47
2018-11-07T17:45:37.200Z,2.90
2018-11-07T17:48:06.729Z,2.80
2018-11-07T17:50:36.493Z,2.37
2018-11-07T17:53:06.860Z,2.22
2018-11-07T17:55:36.352Z,2.40
2018-11-07T17:58:06.579Z,2.37
2018-11-07T18:00:36.023Z,2.37
2018-11-07T18:03:06.347Z,2.00
2018-11-07T18:05:35.787Z,2.23
2018-11-07T18:08:06.466Z,2.80
2018-11-07T18:10:37.575Z,3.17
2018-11-07T18:13:07.166Z,3.05
2018-11-07T18:15:36.601Z,2.90
2018-11-07T18:18:06.576Z,2.55
2018-11-07T18:20:35.996Z,2.70
2018-11-07T18:23:06.728Z,2.90
2018-11-07T18:25:36.226Z,2.70
2018-11-07T18:28:06.413Z,2.60
2018-11-07T18:30:35.815Z,2.67
2018-11-07T18:33:06.585Z,2.50
2018-11-07T18:35:36.016Z,2.13
2018-11-07T18:38:06.175Z,2.58
2018-11-07T18:40:35.595Z,2.72
2018-11-07T18:43:06.528Z,2.50
2018-11-07T18:45:35.873Z,2.57
2018-11-07T18:48:06.495Z,2.58
2018-11-07T18:50:36.213Z,2.80
2018-11-07T18:53:06.696Z,3.02
2018-11-07T18:55:38.983Z,2.63
2018-11-07T18:58:08.497Z,2.70
2018-11-07T19:00:38.157Z,2.73
2018-11-07T19:03:07.938Z,2.70
2018-11-07T19:05:37.405Z,2.60
2018-11-07T19:08:07.669Z,2.70
2018-11-07T19:10:37.218Z,3.03
2018-11-07T19:13:06.990Z,2.60
2018-11-07T19:15:36.418Z,2.83
2018-11-07T19:18:06.785Z,2.80
2018-11-07T19:20:36.320Z,3.10
2018-11-07T19:23:06.685Z,3.27
2018-11-07T19:25:36.158Z,3.30
2018-11-07T19:28:06.471Z,4.15
2018-11-07T19:30:35.949Z,3.70
2018-11-07T19:33:07.142Z,3.40
2018-11-07T19:35:36.587Z,3.73
2018-11-07T19:38:06.984Z,3.22
2018-11-07T19:40:36.474Z,3.03
2018-11-07T19:43:06.577Z,3.35
2018-11-07T19:45:36.058Z,3.73
2018-11-07T19:48:06.275Z,3.80
2018-11-07T19:50:35.772Z,3.73
2018-11-07T19:53:06.379Z,4.14
2018-11-07T19:55:35.913Z,4.73
2018-11-07T19:58:06.827Z,4.17
2018-11-07T20:00:37.635Z,4.33
2018-11-07T20:03:07.039Z,4.10
2018-11-07T20:05:36.547Z,3.80
2018-11-07T20:08:06.143Z,3.80
2018-11-07T20:10:51.124Z,3.90
2018-11-07T20:13:20.581Z,4.47
2018-11-07T20:15:50.102Z,3.60
2018-11-07T20:18:19.594Z,4.20
2018-11-07T20:20:49.553Z,5.23
2018-11-07T20:23:19.080Z,4.63
2018-11-07T20:25:48.651Z,5.43
2018-11-07T20:28:18.229Z,5.30
2018-11-07T20:30:47.757Z,4.87
2018-11-07T20:33:17.220Z,6.00
2018-11-07T20:35:46.827Z,5.13
2018-11-07T20:38:16.257Z,4.75
2018-11-07T20:40:45.717Z,5.23
2018-11-07T20:43:15.427Z,5.50
2018-11-07T20:45:44.835Z,5.17
2018-11-07T20:48:20.296Z,5.20
2018-11-07T20:50:49.712Z,5.83
2018-11-07T20:53:19.195Z,5.85
2018-11-07T20:55:48.629Z,5.30
2018-11-07T20:58:18.119Z,5.28
2018-11-07T21:00:47.575Z,5.13
2018-11-07T21:03:17.063Z,6.03
2018-11-07T21:05:46.547Z,5.63
2018-11-07T21:08:16.020Z,5.72
2018-11-07T21:10:45.537Z,4.70
2018-11-07T21:13:16.117Z,4.15
2018-11-07T21:15:47.304Z,4.20
2018-11-07T21:18:16.838Z,3.83
2018-11-07T21:20:46.602Z,4.20
2018-11-07T21:23:16.439Z,4.03
2018-11-07T21:25:45.970Z,3.70
2018-11-07T21:28:15.422Z,3.70
2018-11-07T21:30:44.942Z,3.87
2018-11-07T21:33:14.424Z,3.80
2018-11-07T21:35:43.951Z,3.50
2018-11-07T21:38:13.350Z,3.43
2018-11-07T21:40:42.872Z,3.60
2018-11-07T21:43:12.354Z,3.43
2018-11-07T21:45:41.876Z,3.50
2018-11-07T21:48:11.275Z,3.67
2018-11-07T21:50:40.706Z,3.70
2018-11-07T21:53:10.135Z,3.40
2018-11-07T21:55:39.598Z,3.40
2018-11-07T21:58:09.014Z,3.20
2018-11-07T22:00:38.466Z,4.00
2018-11-07T22:03:07.915Z,3.57
2018-11-07T22:05:37.338Z,3.90
2018-11-07T22:08:06.955Z,3.70
2018-11-07T22:10:37.357Z,3.50
2018-11-07T22:13:07.053Z,3.90
2018-11-07T22:15:36.458Z,4.10
2018-11-07T22:18:07.014Z,4.03
2018-11-07T22:20:36.498Z,4.23
2018-11-07T22:23:06.376Z,4.10
2018-11-07T22:25:36.206Z,4.60
2018-11-07T22:28:07.357Z,3.80
2018-11-07T22:30:37.055Z,3.73
2018-11-07T22:33:07.310Z,4.20
2018-11-07T22:35:37.010Z,3.97
2018-11-07T22:38:06.709Z,3.90
2018-11-07T22:40:36.533Z,4.50
2018-11-07T22:43:06.730Z,4.08
2018-11-07T22:45:36.375Z,4.28
2018-11-07T22:48:09.113Z,3.65
2018-11-07T22:50:38.764Z,3.90
2018-11-07T22:53:08.455Z,3.92
2018-11-07T22:55:38.076Z,3.97
2018-11-07T22:58:07.769Z,3.50
2018-11-07T23:00:43.234Z,3.70
2018-11-07T23:03:12.909Z,4.30
2018-11-07T23:05:42.236Z,3.90
2018-11-07T23:08:11.642Z,4.00
2018-11-07T23:10:41.488Z,3.63
2018-11-07T23:13:10.962Z,3.75
2018-11-07T23:15:45.402Z,3.57
2018-11-07T23:18:15.187Z,4.10
2018-11-07T23:20:44.641Z,3.70
2018-11-07T23:23:14.225Z,3.73
2018-11-07T23:25:43.782Z,3.70
2018-11-07T23:28:13.118Z,4.00
2018-11-07T23:30:42.458Z,4.10
2018-11-07T23:33:11.791Z,3.50
2018-11-07T23:35:41.308Z,3.77
2018-11-07T23:38:10.691Z,4.20
2018-11-07T23:40:40.113Z,3.80
2018-11-07T23:43:09.442Z,3.73
2018-11-07T23:45:38.828Z,3.90
2018-11-07T23:48:08.129Z,4.30
2018-11-07T23:50:37.500Z,3.73
2018-11-07T23:53:07.069Z,3.63
2018-11-07T23:55:37.819Z,4.03
2018-11-07T23:58:07.153Z,3.90
